sensor_id;sensor_type;location;lat;lon;timestamp;P1;durP1;ratioP1;P2;durP2;ratioP2
45107;SDS011;30869;51.188;6.556;2022-10-16T00:00:56;1.67;;;1.50;;
45107;SDS011;30869;51.188;6.556;2022-10-16T00:03:22;2.95;;;1.40;;
45107;SDS011;30869;51.188;6.556;2022-10-16T00:05:48;1.40;;;1.30;;
45107;SDS011;30869;51.188;6.556;2022-10-16T00:08:13;12.52;;;1.80;;
45107;SDS011;30869;51.188;6.556;2022-10-16T00:10:39;7.65;;;1.63;;
45107;SDS011;30869;51.188;6.556;2022-10-16T00:13:05;1.55;;;1.35;;
45107;SDS011;30869;51.188;6.556;2022-10-16T00:15:35;2.85;;;1.67;;
45107;SDS011;30869;51.188;6.556;2022-10-16T00:18:02;1.75;;;1.55;;
45107;SDS011;30869;51.188;6.556;2022-10-16T00:20:29;5.63;;;1.40;;
45107;SDS011;30869;51.188;6.556;2022-10-16T00:22:58;1.33;;;1.23;;
45107;SDS011;30869;51.188;6.556;2022-10-16T00:25:24;3.15;;;1.05;;
45107;SDS011;30869;51.188;6.556;2022-10-16T00:27:50;4.90;;;1.58;;
45107;SDS011;30869;51.188;6.556;2022-10-16T00:30:16;5.70;;;1.50;;
45107;SDS011;30869;51.188;6.556;2022-10-16T00:32:42;1.50;;;1.30;;
45107;SDS011;30869;51.188;6.556;2022-10-16T00:35:07;5.75;;;1.42;;
45107;SDS011;30869;51.188;6.556;2022-10-16T00:37:53;3.92;;;2.17;;
45107;SDS011;30869;51.188;6.556;2022-10-16T00:40:23;6.82;;;1.30;;
45107;SDS011;30869;51.188;6.556;2022-10-16T00:42:49;5.28;;;1.50;;
45107;SDS011;30869;51.188;6.556;2022-10-16T00:45:16;8.20;;;1.45;;
45107;SDS011;30869;51.188;6.556;2022-10-16T00:47:43;3.25;;;1.27;;
45107;SDS011;30869;51.188;6.556;2022-10-16T00:50:31;5.47;;;1.27;;
45107;SDS011;30869;51.188;6.556;2022-10-16T00:52:59;1.75;;;1.25;;
45107;SDS011;30869;51.188;6.556;2022-10-16T00:55:26;8.40;;;1.50;;
45107;SDS011;30869;51.188;6.556;2022-10-16T00:57:55;3.92;;;1.50;;
45107;SDS011;30869;51.188;6.556;2022-10-16T01:00:24;6.50;;;1.83;;
45107;SDS011;30869;51.188;6.556;2022-10-16T01:02:55;12.70;;;1.40;;
45107;SDS011;30869;51.188;6.556;2022-10-16T01:05:23;1.40;;;1.30;;
45107;SDS011;30869;51.188;6.556;2022-10-16T01:10:38;1.63;;;1.50;;
45107;SDS011;30869;51.188;6.556;2022-10-16T01:13:17;5.18;;;1.60;;
45107;SDS011;30869;51.188;6.556;2022-10-16T01:15:50;3.00;;;1.45;;
45107;SDS011;30869;51.188;6.556;2022-10-16T01:21:24;7.70;;;1.20;;
45107;SDS011;30869;51.188;6.556;2022-10-16T01:26:57;1.73;;;1.40;;
45107;SDS011;30869;51.188;6.556;2022-10-16T01:32:34;1.30;;;1.20;;
45107;SDS011;30869;51.188;6.556;2022-10-16T01:35:26;6.85;;;1.67;;
45107;SDS011;30869;51.188;6.556;2022-10-16T01:38:47;1.27;;;1.10;;
45107;SDS011;30869;51.188;6.556;2022-10-16T01:41:10;1.90;;;1.00;;
45107;SDS011;30869;51.188;6.556;2022-10-16T01:43:46;2.42;;;1.38;;
45107;SDS011;30869;51.188;6.556;2022-10-16T01:46:18;2.10;;;1.23;;
45107;SDS011;30869;51.188;6.556;2022-10-16T01:48:48;2.83;;;2.58;;
45107;SDS011;30869;51.188;6.556;2022-10-16T01:51:15;1.85;;;1.40;;
45107;SDS011;30869;51.188;6.556;2022-10-16T01:53:43;5.32;;;1.20;;
45107;SDS011;30869;51.188;6.556;2022-10-16T01:56:14;1.75;;;1.45;;
45107;SDS011;30869;51.188;6.556;2022-10-16T01:58:43;6.28;;;1.50;;
45107;SDS011;30869;51.188;6.556;2022-10-16T02:01:12;2.25;;;1.38;;
45107;SDS011;30869;51.188;6.556;2022-10-16T02:03:41;5.40;;;1.00;;
45107;SDS011;30869;51.188;6.556;2022-10-16T02:06:12;4.95;;;1.27;;
45107;SDS011;30869;51.188;6.556;2022-10-16T02:08:38;2.40;;;1.10;;
45107;SDS011;30869;51.188;6.556;2022-10-16T02:11:05;2.85;;;0.90;;
45107;SDS011;30869;51.188;6.556;2022-10-16T02:13:42;1.65;;;1.08;;
45107;SDS011;30869;51.188;6.556;2022-10-16T02:16:16;3.72;;;1.23;;
45107;SDS011;30869;51.188;6.556;2022-10-16T02:18:42;1.10;;;1.00;;
45107;SDS011;30869;51.188;6.556;2022-10-16T02:24:05;1.90;;;1.20;;
45107;SDS011;30869;51.188;6.556;2022-10-16T02:26:48;2.00;;;1.10;;
45107;SDS011;30869;51.188;6.556;2022-10-16T02:29:19;8.43;;;1.17;;
45107;SDS011;30869;51.188;6.556;2022-10-16T02:31:49;7.10;;;1.30;;
45107;SDS011;30869;51.188;6.556;2022-10-16T02:34:18;1.17;;;1.05;;
45107;SDS011;30869;51.188;6.556;2022-10-16T02:36:46;3.38;;;1.38;;
45107;SDS011;30869;51.188;6.556;2022-10-16T02:39:14;2.97;;;1.40;;
45107;SDS011;30869;51.188;6.556;2022-10-16T02:41:41;1.77;;;1.45;;
45107;SDS011;30869;51.188;6.556;2022-10-16T02:44:08;6.43;;;1.55;;
45107;SDS011;30869;51.188;6.556;2022-10-16T02:46:34;3.22;;;1.40;;
45107;SDS011;30869;51.188;6.556;2022-10-16T02:49:00;2.05;;;1.15;;
45107;SDS011;30869;51.188;6.556;2022-10-16T02:51:25;2.22;;;1.40;;
45107;SDS011;30869;51.188;6.556;2022-10-16T02:53:52;1.55;;;1.20;;
45107;SDS011;30869;51.188;6.556;2022-10-16T02:56:17;1.13;;;1.02;;
45107;SDS011;30869;51.188;6.556;2022-10-16T02:58:44;1.92;;;0.90;;
45107;SDS011;30869;51.188;6.556;2022-10-16T03:01:10;1.08;;;1.02;;
45107;SDS011;30869;51.188;6.556;2022-10-16T03:03:38;1.35;;;0.95;;
45107;SDS011;30869;51.188;6.556;2022-10-16T03:06:04;9.25;;;1.10;;
45107;SDS011;30869;51.188;6.556;2022-10-16T03:08:31;1.17;;;1.05;;
45107;SDS011;30869;51.188;6.556;2022-10-16T03:10:57;3.35;;;0.93;;
45107;SDS011;30869;51.188;6.556;2022-10-16T03:13:23;0.95;;;0.88;;
45107;SDS011;30869;51.188;6.556;2022-10-16T03:15:49;3.72;;;0.90;;
45107;SDS011;30869;51.188;6.556;2022-10-16T03:18:15;8.35;;;0.95;;
45107;SDS011;30869;51.188;6.556;2022-10-16T03:20:40;9.40;;;1.08;;
45107;SDS011;30869;51.188;6.556;2022-10-16T03:23:10;7.45;;;1.33;;
45107;SDS011;30869;51.188;6.556;2022-10-16T03:25:36;3.53;;;1.00;;
45107;SDS011;30869;51.188;6.556;2022-10-16T03:28:02;0.90;;;0.90;;
45107;SDS011;30869;51.188;6.556;2022-10-16T03:30:28;7.28;;;0.95;;
45107;SDS011;30869;51.188;6.556;2022-10-16T03:32:54;1.83;;;1.05;;
45107;SDS011;30869;51.188;6.556;2022-10-16T03:35:21;1.02;;;0.93;;
45107;SDS011;30869;51.188;6.556;2022-10-16T03:37:48;0.95;;;0.88;;
45107;SDS011;30869;51.188;6.556;2022-10-16T03:40:14;5.55;;;0.98;;
45107;SDS011;30869;51.188;6.556;2022-10-16T03:42:40;1.23;;;0.90;;
45107;SDS011;30869;51.188;6.556;2022-10-16T03:45:07;1.85;;;1.30;;
45107;SDS011;30869;51.188;6.556;2022-10-16T03:47:33;3.58;;;1.38;;
45107;SDS011;30869;51.188;6.556;2022-10-16T03:50:00;5.00;;;1.00;;
45107;SDS011;30869;51.188;6.556;2022-10-16T03:52:26;2.30;;;0.77;;
45107;SDS011;30869;51.188;6.556;2022-10-16T03:54:52;3.42;;;0.82;;
45107;SDS011;30869;51.188;6.556;2022-10-16T03:57:18;0.77;;;0.70;;
45107;SDS011;30869;51.188;6.556;2022-10-16T03:59:45;5.90;;;0.88;;
45107;SDS011;30869;51.188;6.556;2022-10-16T04:02:11;0.80;;;0.80;;
45107;SDS011;30869;51.188;6.556;2022-10-16T04:04:38;3.70;;;0.68;;
45107;SDS011;30869;51.188;6.556;2022-10-16T04:07:04;1.63;;;1.00;;
45107;SDS011;30869;51.188;6.556;2022-10-16T04:09:30;1.10;;;1.00;;
45107;SDS011;30869;51.188;6.556;2022-10-16T04:11:56;1.05;;;0.82;;
45107;SDS011;30869;51.188;6.556;2022-10-16T04:14:22;4.35;;;0.90;;
45107;SDS011;30869;51.188;6.556;2022-10-16T04:16:48;4.57;;;0.93;;
45107;SDS011;30869;51.188;6.556;2022-10-16T04:19:13;2.63;;;1.23;;
45107;SDS011;30869;51.188;6.556;2022-10-16T04:21:39;1.83;;;1.10;;
45107;SDS011;30869;51.188;6.556;2022-10-16T04:24:05;6.70;;;0.95;;
45107;SDS011;30869;51.188;6.556;2022-10-16T04:26:31;8.23;;;1.17;;
45107;SDS011;30869;51.188;6.556;2022-10-16T04:28:59;1.20;;;1.10;;
45107;SDS011;30869;51.188;6.556;2022-10-16T04:31:24;0.75;;;0.75;;
45107;SDS011;30869;51.188;6.556;2022-10-16T04:33:50;1.02;;;1.00;;
45107;SDS011;30869;51.188;6.556;2022-10-16T04:36:17;3.35;;;0.98;;
45107;SDS011;30869;51.188;6.556;2022-10-16T04:38:43;4.40;;;1.02;;
45107;SDS011;30869;51.188;6.556;2022-10-16T04:41:09;4.22;;;1.00;;
45107;SDS011;30869;51.188;6.556;2022-10-16T04:43:35;4.03;;;1.20;;
45107;SDS011;30869;51.188;6.556;2022-10-16T04:46:01;7.93;;;1.83;;
45107;SDS011;30869;51.188;6.556;2022-10-16T04:48:29;2.88;;;1.10;;
45107;SDS011;30869;51.188;6.556;2022-10-16T04:50:56;3.03;;;1.10;;
45107;SDS011;30869;51.188;6.556;2022-10-16T04:53:22;4.10;;;1.00;;
45107;SDS011;30869;51.188;6.556;2022-10-16T04:55:48;3.60;;;1.10;;
45107;SDS011;30869;51.188;6.556;2022-10-16T04:58:14;1.50;;;1.10;;
45107;SDS011;30869;51.188;6.556;2022-10-16T05:00:41;2.40;;;0.98;;
45107;SDS011;30869;51.188;6.556;2022-10-16T05:03:07;5.38;;;1.17;;
45107;SDS011;30869;51.188;6.556;2022-10-16T05:05:34;4.40;;;0.95;;
45107;SDS011;30869;51.188;6.556;2022-10-16T05:08:01;1.25;;;0.90;;
45107;SDS011;30869;51.188;6.556;2022-10-16T05:10:27;1.13;;;0.77;;
45107;SDS011;30869;51.188;6.556;2022-10-16T05:12:53;18.98;;;1.40;;
45107;SDS011;30869;51.188;6.556;2022-10-16T05:15:19;10.10;;;1.10;;
45107;SDS011;30869;51.188;6.556;2022-10-16T05:17:45;2.35;;;1.10;;
45107;SDS011;30869;51.188;6.556;2022-10-16T05:20:11;2.90;;;0.95;;
45107;SDS011;30869;51.188;6.556;2022-10-16T05:22:37;1.48;;;1.10;;
45107;SDS011;30869;51.188;6.556;2022-10-16T05:25:03;5.78;;;1.10;;
45107;SDS011;30869;51.188;6.556;2022-10-16T05:27:29;6.70;;;1.58;;
45107;SDS011;30869;51.188;6.556;2022-10-16T05:29:58;1.33;;;1.23;;
45107;SDS011;30869;51.188;6.556;2022-10-16T05:32:24;8.88;;;2.15;;
45107;SDS011;30869;51.188;6.556;2022-10-16T05:34:51;6.45;;;1.42;;
45107;SDS011;30869;51.188;6.556;2022-10-16T05:37:17;1.45;;;1.27;;
45107;SDS011;30869;51.188;6.556;2022-10-16T05:39:42;3.60;;;2.03;;
45107;SDS011;30869;51.188;6.556;2022-10-16T05:42:08;6.63;;;2.08;;
45107;SDS011;30869;51.188;6.556;2022-10-16T05:44:34;5.65;;;1.20;;
45107;SDS011;30869;51.188;6.556;2022-10-16T05:47:00;1.85;;;1.00;;
45107;SDS011;30869;51.188;6.556;2022-10-16T05:49:26;8.60;;;1.20;;
45107;SDS011;30869;51.188;6.556;2022-10-16T05:51:52;1.50;;;1.40;;
45107;SDS011;30869;51.188;6.556;2022-10-16T05:54:18;2.15;;;1.38;;
45107;SDS011;30869;51.188;6.556;2022-10-16T05:56:44;2.17;;;1.10;;
45107;SDS011;30869;51.188;6.556;2022-10-16T05:59:10;3.30;;;1.20;;
45107;SDS011;30869;51.188;6.556;2022-10-16T06:01:36;2.15;;;1.05;;
45107;SDS011;30869;51.188;6.556;2022-10-16T06:04:02;7.90;;;1.30;;
45107;SDS011;30869;51.188;6.556;2022-10-16T06:06:28;3.13;;;1.42;;
45107;SDS011;30869;51.188;6.556;2022-10-16T06:08:55;1.42;;;1.10;;
45107;SDS011;30869;51.188;6.556;2022-10-16T06:11:21;1.23;;;1.13;;
45107;SDS011;30869;51.188;6.556;2022-10-16T06:13:54;2.95;;;1.42;;
45107;SDS011;30869;51.188;6.556;2022-10-16T06:16:22;8.45;;;1.90;;
45107;SDS011;30869;51.188;6.556;2022-10-16T06:18:52;4.47;;;1.20;;
45107;SDS011;30869;51.188;6.556;2022-10-16T06:21:20;1.90;;;1.08;;
45107;SDS011;30869;51.188;6.556;2022-10-16T06:23:50;1.05;;;1.05;;
45107;SDS011;30869;51.188;6.556;2022-10-16T06:26:17;3.08;;;1.33;;
45107;SDS011;30869;51.188;6.556;2022-10-16T06:28:44;1.30;;;1.20;;
45107;SDS011;30869;51.188;6.556;2022-10-16T06:31:11;2.63;;;1.30;;
45107;SDS011;30869;51.188;6.556;2022-10-16T06:33:37;1.58;;;1.30;;
45107;SDS011;30869;51.188;6.556;2022-10-16T06:36:10;1.73;;;1.10;;
45107;SDS011;30869;51.188;6.556;2022-10-16T06:38:38;11.90;;;1.75;;
45107;SDS011;30869;51.188;6.556;2022-10-16T06:41:05;1.63;;;1.30;;
45107;SDS011;30869;51.188;6.556;2022-10-16T06:43:31;1.17;;;1.05;;
45107;SDS011;30869;51.188;6.556;2022-10-16T06:46:00;5.95;;;1.40;;
45107;SDS011;30869;51.188;6.556;2022-10-16T06:48:26;2.22;;;1.30;;
45107;SDS011;30869;51.188;6.556;2022-10-16T06:50:56;1.20;;;1.10;;
45107;SDS011;30869;51.188;6.556;2022-10-16T06:53:22;9.68;;;1.50;;
45107;SDS011;30869;51.188;6.556;2022-10-16T06:55:49;3.67;;;1.08;;
45107;SDS011;30869;51.188;6.556;2022-10-16T06:58:14;2.65;;;1.23;;
45107;SDS011;30869;51.188;6.556;2022-10-16T07:00:41;5.75;;;1.33;;
45107;SDS011;30869;51.188;6.556;2022-10-16T07:03:06;2.95;;;1.38;;
45107;SDS011;30869;51.188;6.556;2022-10-16T07:05:36;3.58;;;2.25;;
45107;SDS011;30869;51.188;6.556;2022-10-16T07:08:06;0.75;;;0.75;;
45107;SDS011;30869;51.188;6.556;2022-10-16T07:10:32;2.90;;;1.60;;
45107;SDS011;30869;51.188;6.556;2022-10-16T07:12:58;4.82;;;2.88;;
45107;SDS011;30869;51.188;6.556;2022-10-16T07:15:25;4.50;;;1.10;;
45107;SDS011;30869;51.188;6.556;2022-10-16T07:17:51;5.32;;;1.67;;
45107;SDS011;30869;51.188;6.556;2022-10-16T07:20:17;3.47;;;1.33;;
45107;SDS011;30869;51.188;6.556;2022-10-16T07:22:44;5.00;;;1.80;;
45107;SDS011;30869;51.188;6.556;2022-10-16T07:25:10;6.53;;;2.05;;
45107;SDS011;30869;51.188;6.556;2022-10-16T07:27:36;2.70;;;1.33;;
45107;SDS011;30869;51.188;6.556;2022-10-16T07:30:03;1.92;;;1.42;;
45107;SDS011;30869;51.188;6.556;2022-10-16T07:32:29;4.55;;;1.25;;
45107;SDS011;30869;51.188;6.556;2022-10-16T07:34:56;7.32;;;1.38;;
45107;SDS011;30869;51.188;6.556;2022-10-16T07:37:22;3.72;;;1.35;;
45107;SDS011;30869;51.188;6.556;2022-10-16T07:39:48;3.17;;;1.30;;
45107;SDS011;30869;51.188;6.556;2022-10-16T07:42:14;1.23;;;1.13;;
45107;SDS011;30869;51.188;6.556;2022-10-16T07:44:40;7.50;;;1.60;;
45107;SDS011;30869;51.188;6.556;2022-10-16T07:47:07;0.98;;;0.98;;
45107;SDS011;30869;51.188;6.556;2022-10-16T07:49:36;1.20;;;1.10;;
45107;SDS011;30869;51.188;6.556;2022-10-16T07:52:02;5.10;;;1.15;;
45107;SDS011;30869;51.188;6.556;2022-10-16T07:54:28;7.00;;;1.67;;
45107;SDS011;30869;51.188;6.556;2022-10-16T07:56:54;4.85;;;3.05;;
45107;SDS011;30869;51.188;6.556;2022-10-16T07:59:20;8.30;;;1.83;;
45107;SDS011;30869;51.188;6.556;2022-10-16T08:01:48;9.60;;;2.88;;
45107;SDS011;30869;51.188;6.556;2022-10-16T08:04:14;5.35;;;1.70;;
45107;SDS011;30869;51.188;6.556;2022-10-16T08:06:40;5.55;;;1.30;;
45107;SDS011;30869;51.188;6.556;2022-10-16T08:09:06;7.85;;;1.90;;
45107;SDS011;30869;51.188;6.556;2022-10-16T08:11:32;1.45;;;1.35;;
45107;SDS011;30869;51.188;6.556;2022-10-16T08:13:58;2.35;;;1.42;;
45107;SDS011;30869;51.188;6.556;2022-10-16T08:16:25;5.05;;;1.30;;
45107;SDS011;30869;51.188;6.556;2022-10-16T08:18:50;5.78;;;1.50;;
45107;SDS011;30869;51.188;6.556;2022-10-16T08:21:18;5.30;;;1.40;;
45107;SDS011;30869;51.188;6.556;2022-10-16T08:23:45;3.88;;;1.48;;
45107;SDS011;30869;51.188;6.556;2022-10-16T08:26:11;2.03;;;1.40;;
45107;SDS011;30869;51.188;6.556;2022-10-16T08:28:37;5.80;;;1.50;;
45107;SDS011;30869;51.188;6.556;2022-10-16T08:31:11;6.50;;;1.80;;
45107;SDS011;30869;51.188;6.556;2022-10-16T08:33:39;3.03;;;1.20;;
45107;SDS011;30869;51.188;6.556;2022-10-16T08:36:07;2.97;;;1.33;;
45107;SDS011;30869;51.188;6.556;2022-10-16T08:38:34;2.15;;;1.20;;
45107;SDS011;30869;51.188;6.556;2022-10-16T08:41:18;1.15;;;1.05;;
45107;SDS011;30869;51.188;6.556;2022-10-16T08:46:47;5.22;;;0.85;;
45107;SDS011;30869;51.188;6.556;2022-10-16T08:49:28;9.68;;;1.48;;
45107;SDS011;30869;51.188;6.556;2022-10-16T08:51:58;2.33;;;1.13;;
45107;SDS011;30869;51.188;6.556;2022-10-16T08:54:29;3.53;;;1.10;;
45107;SDS011;30869;51.188;6.556;2022-10-16T08:57:11;3.00;;;1.55;;
45107;SDS011;30869;51.188;6.556;2022-10-16T08:59:44;4.40;;;1.40;;
45107;SDS011;30869;51.188;6.556;2022-10-16T09:02:24;5.82;;;1.40;;
45107;SDS011;30869;51.188;6.556;2022-10-16T09:07:50;7.18;;;1.50;;
45107;SDS011;30869;51.188;6.556;2022-10-16T09:10:23;1.15;;;0.95;;
45107;SDS011;30869;51.188;6.556;2022-10-16T09:13:00;2.72;;;1.00;;
45107;SDS011;30869;51.188;6.556;2022-10-16T09:15:59;3.17;;;1.00;;
45107;SDS011;30869;51.188;6.556;2022-10-16T09:21:30;5.80;;;0.90;;
45107;SDS011;30869;51.188;6.556;2022-10-16T09:24:14;1.85;;;0.68;;
45107;SDS011;30869;51.188;6.556;2022-10-16T09:26:45;4.82;;;1.30;;
45107;SDS011;30869;51.188;6.556;2022-10-16T09:32:20;1.85;;;1.33;;
45107;SDS011;30869;51.188;6.556;2022-10-16T09:35:24;5.53;;;1.20;;
45107;SDS011;30869;51.188;6.556;2022-10-16T09:39:18;5.05;;;0.85;;
45107;SDS011;30869;51.188;6.556;2022-10-16T09:42:51;1.23;;;0.98;;
45107;SDS011;30869;51.188;6.556;2022-10-16T09:53:01;5.72;;;0.80;;
45107;SDS011;30869;51.188;6.556;2022-10-16T09:59:03;14.80;;;2.13;;
45107;SDS011;30869;51.188;6.556;2022-10-16T10:01:38;2.28;;;0.85;;
45107;SDS011;30869;51.188;6.556;2022-10-16T10:04:20;1.08;;;0.88;;
45107;SDS011;30869;51.188;6.556;2022-10-16T10:06:52;4.72;;;1.20;;
45107;SDS011;30869;51.188;6.556;2022-10-16T10:09:25;1.48;;;1.00;;
45107;SDS011;30869;51.188;6.556;2022-10-16T10:11:52;8.88;;;1.00;;
45107;SDS011;30869;51.188;6.556;2022-10-16T10:16:48;10.50;;;1.30;;
45107;SDS011;30869;51.188;6.556;2022-10-16T10:19:22;5.30;;;1.00;;
45107;SDS011;30869;51.188;6.556;2022-10-16T10:21:48;7.03;;;1.20;;
45107;SDS011;30869;51.188;6.556;2022-10-16T10:24:16;2.13;;;1.02;;
45107;SDS011;30869;51.188;6.556;2022-10-16T10:27:02;5.22;;;0.80;;
45107;SDS011;30869;51.188;6.556;2022-10-16T10:32:19;2.97;;;1.33;;
45107;SDS011;30869;51.188;6.556;2022-10-16T10:40:51;10.07;;;1.35;;
45107;SDS011;30869;51.188;6.556;2022-10-16T10:43:42;1.25;;;1.10;;
45107;SDS011;30869;51.188;6.556;2022-10-16T10:46:28;2.95;;;1.20;;
45107;SDS011;30869;51.188;6.556;2022-10-16T10:51:56;0.93;;;0.80;;
45107;SDS011;30869;51.188;6.556;2022-10-16T10:57:36;3.38;;;1.00;;
45107;SDS011;30869;51.188;6.556;2022-10-16T11:05:43;5.05;;;1.05;;
45107;SDS011;30869;51.188;6.556;2022-10-16T11:17:28;1.77;;;0.80;;
45107;SDS011;30869;51.188;6.556;2022-10-16T11:30:59;3.05;;;0.80;;
45107;SDS011;30869;51.188;6.556;2022-10-16T11:33:51;4.35;;;1.48;;
45107;SDS011;30869;51.188;6.556;2022-10-16T11:36:44;5.00;;;1.23;;
45107;SDS011;30869;51.188;6.556;2022-10-16T11:39:20;1.45;;;1.00;;
45107;SDS011;30869;51.188;6.556;2022-10-16T11:47:14;2.95;;;0.70;;
45107;SDS011;30869;51.188;6.556;2022-10-16T11:53:04;3.28;;;0.88;;
45107;SDS011;30869;51.188;6.556;2022-10-16T11:55:38;5.07;;;1.00;;
45107;SDS011;30869;51.188;6.556;2022-10-16T11:58:08;9.20;;;1.10;;
45107;SDS011;30869;51.188;6.556;2022-10-16T12:06:46;2.63;;;0.95;;
45107;SDS011;30869;51.188;6.556;2022-10-16T12:09:28;5.32;;;1.10;;
45107;SDS011;30869;51.188;6.556;2022-10-16T12:11:55;6.80;;;1.30;;
45107;SDS011;30869;51.188;6.556;2022-10-16T12:14:32;1.65;;;0.80;;
45107;SDS011;30869;51.188;6.556;2022-10-16T12:17:22;6.40;;;1.10;;
45107;SDS011;30869;51.188;6.556;2022-10-16T12:22:52;3.28;;;0.90;;
45107;SDS011;30869;51.188;6.556;2022-10-16T12:25:21;6.43;;;1.33;;
45107;SDS011;30869;51.188;6.556;2022-10-16T12:27:57;1.67;;;0.90;;
45107;SDS011;30869;51.188;6.556;2022-10-16T12:30:25;3.53;;;1.15;;
45107;SDS011;30869;51.188;6.556;2022-10-16T12:33:06;2.92;;;1.10;;
45107;SDS011;30869;51.188;6.556;2022-10-16T12:35:45;1.33;;;0.90;;
45107;SDS011;30869;51.188;6.556;2022-10-16T12:38:15;1.27;;;0.75;;
45107;SDS011;30869;51.188;6.556;2022-10-16T12:40:43;4.90;;;1.05;;
45107;SDS011;30869;51.188;6.556;2022-10-16T12:43:23;5.80;;;1.48;;
45107;SDS011;30869;51.188;6.556;2022-10-16T12:48:29;0.82;;;0.75;;
45107;SDS011;30869;51.188;6.556;2022-10-16T12:50:55;3.60;;;0.90;;
45107;SDS011;30869;51.188;6.556;2022-10-16T12:53:25;8.07;;;0.80;;
45107;SDS011;30869;51.188;6.556;2022-10-16T13:01:34;1.88;;;0.98;;
45107;SDS011;30869;51.188;6.556;2022-10-16T13:04:30;4.28;;;1.00;;
45107;SDS011;30869;51.188;6.556;2022-10-16T13:10:36;0.95;;;0.63;;
45107;SDS011;30869;51.188;6.556;2022-10-16T13:17:23;2.70;;;0.80;;
45107;SDS011;30869;51.188;6.556;2022-10-16T13:23:21;2.85;;;0.90;;
45107;SDS011;30869;51.188;6.556;2022-10-16T13:29:01;0.82;;;0.82;;
45107;SDS011;30869;51.188;6.556;2022-10-16T13:31:46;4.95;;;0.80;;
45107;SDS011;30869;51.188;6.556;2022-10-16T13:34:21;4.00;;;0.50;;
45107;SDS011;30869;51.188;6.556;2022-10-16T13:37:01;2.70;;;0.80;;
45107;SDS011;30869;51.188;6.556;2022-10-16T13:39:46;4.07;;;1.85;;
45107;SDS011;30869;51.188;6.556;2022-10-16T13:42:26;2.58;;;1.27;;
45107;SDS011;30869;51.188;6.556;2022-10-16T13:47:28;2.08;;;0.80;;
45107;SDS011;30869;51.188;6.556;2022-10-16T13:50:05;4.32;;;0.70;;
45107;SDS011;30869;51.188;6.556;2022-10-16T13:52:35;4.07;;;1.52;;
45107;SDS011;30869;51.188;6.556;2022-10-16T13:55:17;2.33;;;0.80;;
45107;SDS011;30869;51.188;6.556;2022-10-16T13:57:49;3.83;;;1.05;;
45107;SDS011;30869;51.188;6.556;2022-10-16T14:00:27;2.90;;;1.00;;
45107;SDS011;30869;51.188;6.556;2022-10-16T14:03:20;2.60;;;0.60;;
45107;SDS011;30869;51.188;6.556;2022-10-16T14:06:10;3.13;;;0.63;;
45107;SDS011;30869;51.188;6.556;2022-10-16T14:08:42;12.90;;;1.10;;
45107;SDS011;30869;51.188;6.556;2022-10-16T14:11:22;2.45;;;0.80;;
45107;SDS011;30869;51.188;6.556;2022-10-16T14:13:49;1.77;;;0.80;;
45107;SDS011;30869;51.188;6.556;2022-10-16T14:16:18;0.60;;;0.60;;
45107;SDS011;30869;51.188;6.556;2022-10-16T14:18:57;2.72;;;0.82;;
45107;SDS011;30869;51.188;6.556;2022-10-16T14:21:26;2.75;;;0.80;;
45107;SDS011;30869;51.188;6.556;2022-10-16T14:23:57;2.85;;;0.70;;
45107;SDS011;30869;51.188;6.556;2022-10-16T14:26:23;6.35;;;1.17;;
45107;SDS011;30869;51.188;6.556;2022-10-16T14:29:11;1.70;;;0.70;;
45107;SDS011;30869;51.188;6.556;2022-10-16T14:31:39;2.22;;;0.70;;
45107;SDS011;30869;51.188;6.556;2022-10-16T14:34:25;0.93;;;0.90;;
45107;SDS011;30869;51.188;6.556;2022-10-16T14:36:54;0.93;;;0.60;;
45107;SDS011;30869;51.188;6.556;2022-10-16T14:39:24;6.63;;;0.75;;
45107;SDS011;30869;51.188;6.556;2022-10-16T14:41:51;2.85;;;0.80;;
45107;SDS011;30869;51.188;6.556;2022-10-16T14:44:29;2.40;;;0.55;;
45107;SDS011;30869;51.188;6.556;2022-10-16T14:47:06;1.70;;;0.65;;
45107;SDS011;30869;51.188;6.556;2022-10-16T14:49:37;4.47;;;0.95;;
45107;SDS011;30869;51.188;6.556;2022-10-16T14:52:11;5.53;;;0.88;;
45107;SDS011;30869;51.188;6.556;2022-10-16T14:54:37;5.25;;;1.10;;
45107;SDS011;30869;51.188;6.556;2022-10-16T14:57:22;3.03;;;0.85;;
45107;SDS011;30869;51.188;6.556;2022-10-16T15:00:26;2.88;;;0.73;;
45107;SDS011;30869;51.188;6.556;2022-10-16T15:02:52;3.40;;;0.80;;
45107;SDS011;30869;51.188;6.556;2022-10-16T15:05:22;2.65;;;0.90;;
45107;SDS011;30869;51.188;6.556;2022-10-16T15:07:50;7.07;;;0.80;;
45107;SDS011;30869;51.188;6.556;2022-10-16T15:10:23;3.17;;;0.90;;
45107;SDS011;30869;51.188;6.556;2022-10-16T15:12:51;5.05;;;0.98;;
45107;SDS011;30869;51.188;6.556;2022-10-16T15:17:48;5.50;;;1.10;;
45107;SDS011;30869;51.188;6.556;2022-10-16T15:20:19;9.98;;;2.78;;
45107;SDS011;30869;51.188;6.556;2022-10-16T15:22:53;3.45;;;2.45;;
45107;SDS011;30869;51.188;6.556;2022-10-16T15:25:51;4.55;;;3.00;;
45107;SDS011;30869;51.188;6.556;2022-10-16T15:28:18;4.47;;;2.35;;
45107;SDS011;30869;51.188;6.556;2022-10-16T15:30:52;4.95;;;3.95;;
45107;SDS011;30869;51.188;6.556;2022-10-16T15:33:20;12.10;;;6.63;;
45107;SDS011;30869;51.188;6.556;2022-10-16T15:35:48;11.90;;;6.45;;
45107;SDS011;30869;51.188;6.556;2022-10-16T15:38:15;6.95;;;3.78;;
45107;SDS011;30869;51.188;6.556;2022-10-16T15:40:41;5.55;;;1.27;;
45107;SDS011;30869;51.188;6.556;2022-10-16T15:43:11;3.65;;;2.22;;
45107;SDS011;30869;51.188;6.556;2022-10-16T15:45:36;5.07;;;2.65;;
45107;SDS011;30869;51.188;6.556;2022-10-16T15:48:02;9.98;;;3.13;;
45107;SDS011;30869;51.188;6.556;2022-10-16T15:50:29;6.05;;;3.10;;
45107;SDS011;30869;51.188;6.556;2022-10-16T15:52:56;3.03;;;1.30;;
45107;SDS011;30869;51.188;6.556;2022-10-16T15:55:22;7.72;;;1.52;;
45107;SDS011;30869;51.188;6.556;2022-10-16T15:57:48;6.43;;;1.65;;
45107;SDS011;30869;51.188;6.556;2022-10-16T16:00:15;7.18;;;2.00;;
45107;SDS011;30869;51.188;6.556;2022-10-16T16:02:43;2.05;;;1.05;;
45107;SDS011;30869;51.188;6.556;2022-10-16T16:05:10;1.73;;;1.40;;
45107;SDS011;30869;51.188;6.556;2022-10-16T16:07:36;3.70;;;2.00;;
45107;SDS011;30869;51.188;6.556;2022-10-16T16:10:07;4.40;;;3.05;;
45107;SDS011;30869;51.188;6.556;2022-10-16T16:12:34;7.25;;;4.40;;
45107;SDS011;30869;51.188;6.556;2022-10-16T16:15:00;6.30;;;3.00;;
45107;SDS011;30869;51.188;6.556;2022-10-16T16:17:26;3.40;;;2.63;;
45107;SDS011;30869;51.188;6.556;2022-10-16T16:19:52;6.80;;;2.25;;
45107;SDS011;30869;51.188;6.556;2022-10-16T16:22:18;9.10;;;3.35;;
45107;SDS011;30869;51.188;6.556;2022-10-16T16:24:43;5.55;;;2.50;;
45107;SDS011;30869;51.188;6.556;2022-10-16T16:27:12;4.50;;;2.33;;
45107;SDS011;30869;51.188;6.556;2022-10-16T16:29:38;1.83;;;1.15;;
45107;SDS011;30869;51.188;6.556;2022-10-16T16:32:04;1.10;;;1.00;;
45107;SDS011;30869;51.188;6.556;2022-10-16T16:34:30;13.63;;;2.42;;
45107;SDS011;30869;51.188;6.556;2022-10-16T16:36:56;3.55;;;1.90;;
45107;SDS011;30869;51.188;6.556;2022-10-16T16:39:22;4.82;;;2.10;;
45107;SDS011;30869;51.188;6.556;2022-10-16T16:41:48;4.80;;;2.63;;
45107;SDS011;30869;51.188;6.556;2022-10-16T16:44:14;10.05;;;2.53;;
45107;SDS011;30869;51.188;6.556;2022-10-16T16:46:41;11.13;;;2.95;;
45107;SDS011;30869;51.188;6.556;2022-10-16T16:49:09;4.45;;;1.55;;
45107;SDS011;30869;51.188;6.556;2022-10-16T16:51:36;9.18;;;4.32;;
45107;SDS011;30869;51.188;6.556;2022-10-16T16:54:03;22.23;;;9.35;;
45107;SDS011;30869;51.188;6.556;2022-10-16T16:56:29;15.95;;;7.78;;
45107;SDS011;30869;51.188;6.556;2022-10-16T16:58:55;14.38;;;6.35;;
45107;SDS011;30869;51.188;6.556;2022-10-16T17:01:23;14.65;;;5.00;;
45107;SDS011;30869;51.188;6.556;2022-10-16T17:03:51;16.05;;;5.22;;
45107;SDS011;30869;51.188;6.556;2022-10-16T17:06:19;7.95;;;4.57;;
45107;SDS011;30869;51.188;6.556;2022-10-16T17:08:46;5.93;;;3.50;;
45107;SDS011;30869;51.188;6.556;2022-10-16T17:11:14;13.90;;;3.95;;
45107;SDS011;30869;51.188;6.556;2022-10-16T17:13:42;5.22;;;3.00;;